AJACCIO current weather conditions

sailwx.info

Wind from 040 at 7 knots

Air temperature 2.0° C
Visibility: greater than 5.4 NM
Dewpoint -1.0° C

Last reported at 2017-Jan-20 00:30 UTC.
Time now 2017-Jan-20 01:47 UTC

Location: N 41°55' E 008°48'.
View on Google Maps.

See reports from other nearby stations

  
Tides and Currents Weather Stations Pressure Air Temp Water Temp Dewpoint Dewpoint Depression Visibility Wind Speed Wind Dir Waves Ship Positions
date/time (UTC)wind fromknots sea level pressurealtimeterstation pressurevisibilityair tempwater tempwave heightnotes
2017-Jan-20 00:30 040 7 5.4 2.0
2017-Jan-20 00:00 030 6 5.4 2.0
2017-Jan-19 23:30 040 7 5.4 2.0
2017-Jan-19 23:00 040 6 5.4 3.0
2017-Jan-19 22:30 050 6 5.4 2.0
2017-Jan-19 22:00 030 5 5.4 4.0
2017-Jan-19 21:30 030 5 5.4 4.0
2017-Jan-19 21:00 040 5 5.4 4.0
2017-Jan-19 20:30 040 6 5.4 4.0
2017-Jan-19 20:00 030 5 5.4 5.0
2017-Jan-19 19:30 050 6 5.4 5.0
2017-Jan-19 19:00 030 6 5.4 6.0
2017-Jan-19 18:30 040 5 5.4 7.0
2017-Jan-19 18:00 030 6 5.4 7.0
2017-Jan-19 17:30 040 5 5.4 8.0
2017-Jan-19 17:00 030 4 5.4 8.0
2017-Jan-19 16:30 310 4 5.410.0
2017-Jan-19 16:00 220 5 5.411.0
2017-Jan-19 15:30 200 6 5.412.0
2017-Jan-19 15:00 240 6 5.412.0
2017-Jan-19 14:30 220 6 5.413.0
2017-Jan-19 14:00 210 6 5.413.0
2017-Jan-19 13:30 200 5 5.413.0
2017-Jan-19 13:00 220 5 5.413.0
2017-Jan-19 12:30 230 5 5.412.0
2017-Jan-19 12:00 220 5 5.412.0
2017-Jan-19 11:36 230 2 5.411.0
2017-Jan-19 11:00 210 2 5.411.0
2017-Jan-19 10:30 5.411.0
2017-Jan-19 10:00 5.411.0
2017-Jan-19 09:35 5.410.0
2017-Jan-19 09:00 5.4 8.0
2017-Jan-19 08:30 5.4 6.0
2017-Jan-19 08:00 5.4 3.0
2017-Jan-19 07:30 020 4 5.4 2.0
2017-Jan-19 07:00 030 5 5.4 1.0
2017-Jan-19 06:30 070 2 5.4 1.0
2017-Jan-19 06:00 030 6 5.4 1.0
2017-Jan-19 05:00 060 5 5.4 1.0
2017-Jan-19 04:30 030 6 5.4 2.0
2017-Jan-19 04:00 050 5 5.4 1.0
2017-Jan-19 03:30 040 6 5.4 1.0
2017-Jan-19 03:00 040 5 5.4 2.0
2017-Jan-19 02:30 050 5 5.4 2.0
2017-Jan-19 02:00 070 4 5.4 1.0
2017-Jan-19 01:30 070 4 5.4 2.0
2017-Jan-19 01:00 080 2 5.4 3.0
2017-Jan-19 00:30 080 4 5.4 3.0
2017-Jan-19 00:00 5.4 3.0
2017-Jan-18 23:30 110 6 5.4 2.0
2017-Jan-18 23:00 060 2 5.4 3.0
2017-Jan-18 22:30 5.4 3.0
2017-Jan-18 22:00 5.4 3.0
2017-Jan-18 21:30 040 4 5.4 4.0
2017-Jan-18 21:00 020 4 5.4 5.0
2017-Jan-18 20:30 5.4 6.0
2017-Jan-18 20:00 040 5 5.4 8.0
2017-Jan-18 19:30 5.4 8.0
2017-Jan-18 19:00 5.4 7.0
2017-Jan-18 18:30 5.4 8.0
2017-Jan-18 18:00 5.4 8.0
2017-Jan-18 17:30 030 5 5.4 8.0
2017-Jan-18 17:00 060 5 5.4 7.0
2017-Jan-18 16:30 360 7 5.4 9.0
2017-Jan-18 16:00 5.4 9.0
2017-Jan-18 15:30 010 2 5.4 9.0
2017-Jan-18 15:00 5.4 9.0
2017-Jan-18 14:30 360 7 5.4 9.0
2017-Jan-18 14:00 5.4 9.0
2017-Jan-18 13:30 010 13 5.410.0
2017-Jan-18 13:00 350 4 5.410.0
2017-Jan-18 12:30 5.410.0
2017-Jan-18 12:00 5.410.0
2017-Jan-18 11:30 040 6 5.4 9.0
2017-Jan-18 11:00 010 13 5.4 9.0
2017-Jan-18 10:30 010 14 5.4 9.0
2017-Jan-18 10:00 020 14 5.4 9.0
2017-Jan-18 09:30 060 5 5.4 9.0
2017-Jan-18 09:00 5.4 8.0
2017-Jan-18 08:30 030 8 5.4 8.0
2017-Jan-18 08:00 020 13 5.4 8.0
2017-Jan-18 07:30 020 13 5.4 8.0
2017-Jan-18 07:00 020 9 5.4 7.0
2017-Jan-18 06:30 5.4 7.0
2017-Jan-18 06:00 5.4 8.0
2017-Jan-18 05:30 020 15 5.4 8.0
2017-Jan-18 05:00 030 15 gusting 27 5.4 8.0
2017-Jan-18 04:30 040 12 5.4 7.0
2017-Jan-18 04:00 020 13 5.4 6.0
2017-Jan-18 03:30 010 20 5.4 6.0 Light rain.
2017-Jan-18 03:00 030 18 5.4 6.0
2017-Jan-18 02:30 020 20 5.4 8.0
2017-Jan-18 02:00 020 19 gusting 36 5.4 8.0
2017-Jan-18 01:30 010 20 5.4 9.0
2017-Jan-18 01:00 020 13 5.4 9.0